createdAt,value
2023-05-14T00:23:05.893Z,11.7
2023-05-14T00:53:18.839Z,11.4
2023-05-14T01:23:19.559Z,11.1
2023-05-14T01:53:29.985Z,10.7
2023-05-14T02:53:30.776Z,10.9
2023-05-14T03:23:31.189Z,11
2023-05-14T03:53:32.008Z,10.9
2023-05-14T04:23:32.445Z,11
2023-05-14T04:53:32.844Z,10.9
2023-05-14T05:23:33.256Z,11
2023-05-14T05:53:33.683Z,11.2
2023-05-14T06:53:34.637Z,12
2023-05-14T07:23:35.088Z,12.7
2023-05-14T07:53:35.563Z,14.4
2023-05-14T08:23:46.297Z,15.5
2023-05-14T08:53:46.738Z,17.1
2023-05-14T09:23:57.469Z,17.6
2023-05-14T09:53:57.880Z,18.4
2023-05-14T10:23:58.755Z,19
2023-05-14T10:53:59.257Z,19
2023-05-14T11:24:00.210Z,19
2023-05-14T11:54:00.666Z,19.6
2023-05-14T12:24:01.103Z,20.5
2023-05-14T12:54:01.561Z,20.5
2023-05-14T13:24:01.998Z,21.1
2023-05-14T14:24:02.843Z,21.2
2023-05-14T14:54:13.268Z,19.9
2023-05-14T15:24:13.794Z,22.3
2023-05-14T15:54:24.716Z,21.6
2023-05-14T16:24:25.168Z,21.9
2023-05-14T16:54:25.620Z,22
2023-05-14T17:24:28.342Z,21.3
2023-05-14T17:54:32.504Z,20.6
2023-05-14T18:24:32.971Z,19.2
2023-05-14T18:54:33.419Z,18.4
2023-05-14T19:24:33.875Z,17.4
2023-05-14T19:54:34.353Z,16.4
2023-05-14T20:24:37.024Z,15.6
2023-05-14T20:54:37.481Z,14.9
2023-05-14T21:24:37.919Z,14.7
2023-05-14T21:54:38.349Z,13.9
2023-05-14T22:24:49.277Z,13.6
2023-05-14T22:54:49.701Z,13.2
2023-05-14T23:25:00.396Z,13.2
2023-05-14T23:55:00.799Z,13.3
